createdAt,value
2023-01-15T00:00:13.340Z,7.30
2023-01-15T00:02:41.990Z,7.10
2023-01-15T00:05:10.263Z,6.70
2023-01-15T00:07:39.549Z,6.70
2023-01-15T00:10:11.682Z,6.40
2023-01-15T00:12:42.229Z,6.30
2023-01-15T00:15:14.498Z,6.20
2023-01-15T00:17:43.921Z,6.20
2023-01-15T00:20:13.028Z,6.10
2023-01-15T00:22:42.619Z,6.00
2023-01-15T00:25:30.893Z,6.00
2023-01-15T00:28:02.015Z,5.90
2023-01-15T00:30:30.133Z,5.90
2023-01-15T00:33:00.683Z,5.80
2023-01-15T00:35:30.006Z,5.70
2023-01-15T00:38:00.254Z,5.50
2023-01-15T00:40:30.996Z,5.50
2023-01-15T00:43:01.627Z,5.40
2023-01-15T00:45:31.014Z,5.50
2023-01-15T00:47:59.112Z,5.40
2023-01-15T00:50:28.116Z,5.40
2023-01-15T00:52:57.458Z,5.40
2023-01-15T00:55:26.150Z,5.30
2023-01-15T00:57:58.061Z,5.30
2023-01-15T01:00:27.407Z,5.20
2023-01-15T01:02:57.844Z,5.20
2023-01-15T01:05:25.975Z,5.10
2023-01-15T01:07:54.321Z,5.10
2023-01-15T01:10:22.497Z,5.00
2023-01-15T01:12:53.499Z,5.00
2023-01-15T01:15:25.728Z,4.80
2023-01-15T01:17:56.294Z,4.70
2023-01-15T01:20:24.502Z,4.60
2023-01-15T01:22:53.807Z,4.60
2023-01-15T01:25:21.978Z,4.50
2023-01-15T01:27:52.644Z,4.40
2023-01-15T01:30:21.936Z,4.60
2023-01-15T01:32:52.541Z,4.50
2023-01-15T01:40:24.177Z,4.40
2023-01-15T01:42:53.463Z,4.40
2023-01-15T01:45:26.864Z,4.40
2023-01-15T01:48:02.674Z,4.40
2023-01-15T01:50:33.009Z,4.40
2023-01-15T01:53:08.491Z,4.40
2023-01-15T01:55:38.715Z,4.40
2023-01-15T01:58:12.994Z,4.50
2023-01-15T02:00:46.094Z,4.50
2023-01-15T02:03:21.317Z,4.40
2023-01-15T02:05:54.921Z,4.50
2023-01-15T02:08:24.227Z,4.50
2023-01-15T02:10:55.888Z,6.70
2023-01-15T02:13:39.878Z,4.50
2023-01-15T02:16:16.630Z,4.60
2023-01-15T02:18:57.764Z,4.60
2023-01-15T02:21:41.021Z,4.50
2023-01-15T02:24:25.839Z,4.50
2023-01-15T02:27:16.065Z,4.50
2023-01-15T02:29:58.988Z,4.50
2023-01-15T02:32:36.121Z,4.50
2023-01-15T02:35:14.025Z,4.50
2023-01-15T02:37:52.130Z,4.50
2023-01-15T02:40:24.702Z,4.50
2023-01-15T02:42:56.506Z,4.50
2023-01-15T02:45:28.228Z,5.30
2023-01-15T02:48:07.557Z,4.60
2023-01-15T02:50:41.733Z,4.60
2023-01-15T02:53:18.407Z,4.60
2023-01-15T02:55:51.653Z,4.50
2023-01-15T02:58:33.441Z,4.60
2023-01-15T03:01:11.159Z,4.50
2023-01-15T03:03:50.932Z,4.50
2023-01-15T03:06:28.608Z,4.60
2023-01-15T03:08:58.812Z,4.60
2023-01-15T03:14:09.608Z,4.50
2023-01-15T03:16:46.561Z,4.50
2023-01-15T03:19:27.904Z,4.50
2023-01-15T03:22:08.143Z,4.60
2023-01-15T03:24:43.313Z,4.50
2023-01-15T03:27:13.648Z,4.60
2023-01-15T03:29:52.672Z,4.60
2023-01-15T03:32:22.070Z,4.60
2023-01-15T03:34:54.789Z,4.60
2023-01-15T03:37:27.357Z,4.60
2023-01-15T03:40:00.801Z,4.60
2023-01-15T03:42:46.613Z,4.60
2023-01-15T03:45:27.046Z,4.60
2023-01-15T03:48:03.871Z,5.20
2023-01-15T03:50:43.773Z,4.70
2023-01-15T03:53:23.074Z,4.60
2023-01-15T03:56:03.113Z,4.70
2023-01-15T03:58:42.854Z,4.70
2023-01-15T04:01:19.783Z,4.60
2023-01-15T04:03:52.247Z,4.60
2023-01-15T04:06:27.367Z,4.60
2023-01-15T04:08:57.558Z,4.70
2023-01-15T04:11:27.981Z,4.70
2023-01-15T04:16:39.245Z,4.80
2023-01-15T04:19:09.129Z,4.80
2023-01-15T04:21:42.294Z,4.80
2023-01-15T04:26:41.212Z,4.90
2023-01-15T04:29:10.520Z,4.80
2023-01-15T04:31:40.116Z,4.90
2023-01-15T04:34:09.480Z,4.80
2023-01-15T04:36:38.976Z,4.90
2023-01-15T04:39:07.487Z,4.90
2023-01-15T04:41:53.119Z,4.90
2023-01-15T04:44:21.140Z,4.90
2023-01-15T04:46:51.740Z,5.00
2023-01-15T04:49:21.224Z,5.00
2023-01-15T04:51:49.304Z,5.00
2023-01-15T04:54:21.529Z,5.10
2023-01-15T04:56:52.616Z,5.00
2023-01-15T04:59:25.566Z,5.00
2023-01-15T05:02:06.271Z,5.20
2023-01-15T05:04:36.642Z,5.00
2023-01-15T05:07:07.009Z,5.00
2023-01-15T05:09:36.600Z,4.90
2023-01-15T05:12:07.005Z,5.00
2023-01-15T05:14:36.298Z,5.00
2023-01-15T05:17:06.852Z,5.00
2023-01-15T05:19:36.105Z,5.10
2023-01-15T05:22:05.345Z,5.10
2023-01-15T05:24:35.818Z,5.10
2023-01-15T05:27:06.174Z,5.00
2023-01-15T05:29:35.455Z,5.00
2023-01-15T05:32:03.765Z,5.10
2023-01-15T05:34:34.412Z,5.00
2023-01-15T05:37:03.729Z,5.00
2023-01-15T05:39:33.007Z,5.10
2023-01-15T05:42:02.168Z,5.10
2023-01-15T05:44:31.435Z,5.00
2023-01-15T05:47:03.208Z,5.10
2023-01-15T05:49:34.073Z,5.00
2023-01-15T05:52:03.684Z,5.20
2023-01-15T05:54:35.059Z,5.40
2023-01-15T05:57:05.074Z,5.10
2023-01-15T05:59:35.977Z,5.20
2023-01-15T06:02:04.311Z,5.30
2023-01-15T06:04:36.422Z,5.30
2023-01-15T06:07:05.277Z,5.30
2023-01-15T06:09:33.329Z,5.40
2023-01-15T06:12:02.572Z,5.30
2023-01-15T06:14:30.647Z,5.30
2023-01-15T06:16:59.923Z,5.40
2023-01-15T06:19:27.984Z,5.50
2023-01-15T06:21:57.337Z,5.50
2023-01-15T06:24:26.700Z,5.50
2023-01-15T06:26:54.774Z,5.70
2023-01-15T06:31:51.330Z,5.60
2023-01-15T06:34:20.737Z,5.70
2023-01-15T06:36:48.869Z,5.50
2023-01-15T06:39:19.481Z,5.60
2023-01-15T06:42:06.519Z,5.60
2023-01-15T06:44:53.453Z,5.50
2023-01-15T06:47:23.233Z,5.50
2023-01-15T06:49:56.203Z,5.50
2023-01-15T06:52:27.627Z,5.40
2023-01-15T06:54:57.445Z,5.40
2023-01-15T06:57:26.668Z,5.40
2023-01-15T07:02:24.405Z,5.30
2023-01-15T07:04:54.862Z,5.30
2023-01-15T07:07:23.611Z,5.30
2023-01-15T07:09:51.859Z,5.30
2023-01-15T07:12:23.299Z,4.90
2023-01-15T07:17:38.527Z,5.50
2023-01-15T07:20:08.765Z,5.40
2023-01-15T07:22:37.996Z,5.50
2023-01-15T07:25:10.851Z,5.60
2023-01-15T07:27:40.167Z,5.60
2023-01-15T07:30:11.349Z,5.60
2023-01-15T07:32:40.676Z,5.60
2023-01-15T07:35:11.345Z,5.10
2023-01-15T07:37:40.601Z,5.60
2023-01-15T07:40:12.174Z,5.30
2023-01-15T07:42:59.079Z,5.50
2023-01-15T07:45:46.682Z,5.50
2023-01-15T07:48:32.502Z,5.50
2023-01-15T07:51:03.420Z,5.50
2023-01-15T07:53:32.629Z,5.50
2023-01-15T07:56:02.069Z,5.50
2023-01-15T07:58:32.615Z,5.40
2023-01-15T08:01:02.050Z,5.60
2023-01-15T08:06:01.393Z,5.90
2023-01-15T08:11:22.275Z,5.60
2023-01-15T08:14:09.788Z,5.70
2023-01-15T08:16:40.313Z,5.60
2023-01-15T08:19:08.364Z,5.70
2023-01-15T08:21:37.658Z,5.80
2023-01-15T08:24:07.586Z,5.80
2023-01-15T08:26:36.884Z,5.80
2023-01-15T08:29:07.518Z,5.80
2023-01-15T08:31:38.158Z,5.90
2023-01-15T08:34:06.243Z,6.10
2023-01-15T08:39:04.722Z,6.00
2023-01-15T08:41:34.415Z,5.70
2023-01-15T08:46:34.133Z,5.40
2023-01-15T08:51:31.809Z,5.20
2023-01-15T08:54:01.118Z,5.30
2023-01-15T08:56:29.232Z,5.30
2023-01-15T08:58:57.328Z,5.30
2023-01-15T09:01:27.865Z,5.50
2023-01-15T09:03:58.152Z,5.50
2023-01-15T09:06:27.690Z,5.60
2023-01-15T09:08:56.917Z,5.60
2023-01-15T09:11:26.558Z,5.70
2023-01-15T09:13:54.661Z,5.90
2023-01-15T09:16:26.636Z,6.00
2023-01-15T09:18:57.268Z,6.10
2023-01-15T09:26:31.380Z,5.90
2023-01-15T09:29:02.299Z,5.50
2023-01-15T09:31:32.275Z,5.70
2023-01-15T09:34:03.049Z,5.60
2023-01-15T09:36:35.298Z,5.50
2023-01-15T09:39:05.289Z,5.50
2023-01-15T09:42:08.106Z,5.50
2023-01-15T09:45:00.121Z,5.50
2023-01-15T09:47:36.842Z,5.70
2023-01-15T09:50:26.951Z,5.50
2023-01-15T09:53:25.194Z,5.60
2023-01-15T09:55:57.008Z,5.70
2023-01-15T09:58:35.270Z,5.80
2023-01-15T10:01:05.384Z,5.90
2023-01-15T10:03:43.091Z,6.00
2023-01-15T10:06:22.025Z,6.10
2023-01-15T10:08:52.361Z,6.00
2023-01-15T10:11:46.593Z,6.30
2023-01-15T10:14:26.443Z,6.70
2023-01-15T10:19:31.913Z,7.70
2023-01-15T10:22:19.119Z,8.10
2023-01-15T10:24:56.797Z,8.00
2023-01-15T10:27:31.278Z,8.50
2023-01-15T10:30:07.463Z,9.00
2023-01-15T10:33:01.646Z,10.00
2023-01-15T10:35:45.987Z,10.70
2023-01-15T10:38:25.955Z,11.50
2023-01-15T10:41:26.486Z,11.30
2023-01-15T10:44:02.636Z,11.50
2023-01-15T10:46:39.460Z,11.10
2023-01-15T10:49:16.492Z,11.80
2023-01-15T10:51:47.560Z,11.50
2023-01-15T10:54:27.601Z,11.80
2023-01-15T10:57:10.975Z,11.90
2023-01-15T10:59:46.291Z,11.80
2023-01-15T11:02:27.275Z,10.50
2023-01-15T11:04:55.906Z,10.60
2023-01-15T11:07:33.501Z,10.10
2023-01-15T11:10:07.753Z,9.90
2023-01-15T11:12:57.141Z,9.90
2023-01-15T11:15:46.306Z,10.00
2023-01-15T11:18:40.827Z,9.60
2023-01-15T11:21:16.209Z,9.40
2023-01-15T11:23:45.383Z,9.60
2023-01-15T11:26:24.874Z,9.90
2023-01-15T11:28:54.695Z,9.90
2023-01-15T11:31:24.321Z,9.20
2023-01-15T11:34:01.182Z,9.30
2023-01-15T11:36:33.709Z,9.10
2023-01-15T11:39:01.937Z,8.50
2023-01-15T11:41:50.709Z,8.30
2023-01-15T11:44:37.975Z,8.10
2023-01-15T11:47:30.256Z,8.20
2023-01-15T11:50:16.257Z,8.20
2023-01-15T11:52:51.046Z,8.30
2023-01-15T11:55:22.262Z,10.00
2023-01-15T11:57:54.429Z,8.30
2023-01-15T12:00:26.897Z,8.20
2023-01-15T12:03:01.380Z,8.40
2023-01-15T12:05:32.753Z,8.50
2023-01-15T12:08:11.801Z,8.30
2023-01-15T12:11:21.316Z,8.10
2023-01-15T12:14:20.054Z,7.80
2023-01-15T12:16:56.882Z,7.60
2023-01-15T12:19:36.819Z,7.50
2023-01-15T12:22:23.803Z,7.50
2023-01-15T12:25:18.422Z,7.50
2023-01-15T12:28:03.306Z,7.60
2023-01-15T12:30:43.143Z,7.70
2023-01-15T12:33:29.610Z,7.80
2023-01-15T12:36:04.463Z,7.70
2023-01-15T12:38:52.048Z,7.70
2023-01-15T12:41:50.035Z,7.60
2023-01-15T12:44:47.046Z,7.60
2023-01-15T12:47:23.617Z,7.50
2023-01-15T12:49:58.725Z,7.30
2023-01-15T12:52:35.246Z,7.40
2023-01-15T12:55:15.486Z,8.50
2023-01-15T12:57:48.032Z,7.20
2023-01-15T13:00:22.543Z,7.20
2023-01-15T13:03:10.427Z,7.20
2023-01-15T13:05:47.596Z,7.20
2023-01-15T13:08:27.147Z,7.20
2023-01-15T13:13:29.970Z,7.10
2023-01-15T13:16:15.415Z,7.10
2023-01-15T13:19:00.427Z,8.20
2023-01-15T13:21:35.519Z,7.60
2023-01-15T13:24:24.295Z,7.20
2023-01-15T13:27:17.641Z,7.30
2023-01-15T13:30:05.925Z,7.40
2023-01-15T13:32:37.225Z,7.70
2023-01-15T13:35:15.495Z,7.80
2023-01-15T13:37:49.399Z,7.80
2023-01-15T13:40:26.489Z,7.90
2023-01-15T13:42:58.257Z,7.80
2023-01-15T13:45:37.804Z,7.70
2023-01-15T13:48:13.166Z,7.90
2023-01-15T13:50:52.250Z,7.80
2023-01-15T13:53:30.436Z,7.80
2023-01-15T13:56:05.366Z,7.80
2023-01-15T13:58:40.239Z,7.70
2023-01-15T14:01:27.410Z,7.50
2023-01-15T14:04:09.160Z,7.50
2023-01-15T14:06:46.125Z,7.40
2023-01-15T14:09:29.484Z,7.10
2023-01-15T14:12:14.497Z,7.30
2023-01-15T14:15:02.650Z,7.30
2023-01-15T14:18:05.611Z,7.10
2023-01-15T14:20:55.986Z,7.10
2023-01-15T14:23:46.019Z,7.20
2023-01-15T14:26:25.521Z,7.00
2023-01-15T14:29:26.066Z,6.90
2023-01-15T14:32:10.592Z,6.90
2023-01-15T14:34:39.392Z,6.90
2023-01-15T14:37:25.448Z,6.80
2023-01-15T14:39:59.915Z,6.70
2023-01-15T14:42:49.878Z,6.60
2023-01-15T14:45:26.944Z,6.60
2023-01-15T14:47:56.675Z,6.70
2023-01-15T14:50:42.025Z,6.90
2023-01-15T14:53:32.059Z,7.20
2023-01-15T14:56:12.892Z,6.80
2023-01-15T14:58:59.665Z,6.80
2023-01-15T15:01:37.098Z,6.70
2023-01-15T15:04:23.447Z,6.10
2023-01-15T15:06:57.287Z,6.30
2023-01-15T15:09:37.376Z,6.40
2023-01-15T15:12:24.849Z,6.30
2023-01-15T15:15:02.864Z,6.40
2023-01-15T15:17:45.513Z,6.50
2023-01-15T15:20:32.409Z,8.40
2023-01-15T15:23:13.009Z,6.50
2023-01-15T15:25:43.990Z,6.50
2023-01-15T15:28:15.796Z,6.40
2023-01-15T15:30:47.141Z,6.60
2023-01-15T15:33:22.277Z,6.60
2023-01-15T15:35:55.983Z,6.60
2023-01-15T15:38:27.626Z,6.60
2023-01-15T15:40:59.317Z,6.70
2023-01-15T15:43:57.268Z,6.70
2023-01-15T15:46:45.978Z,6.70
2023-01-15T15:49:17.359Z,6.80
2023-01-15T15:51:49.583Z,6.80
2023-01-15T15:54:21.892Z,6.90
2023-01-15T15:56:57.659Z,7.00
2023-01-15T15:59:36.679Z,6.90
2023-01-15T16:02:20.535Z,6.90
2023-01-15T16:04:51.920Z,6.80
2023-01-15T16:07:27.708Z,6.80
2023-01-15T16:10:01.468Z,6.80
2023-01-15T16:12:36.103Z,6.80
2023-01-15T16:15:08.569Z,6.80
2023-01-15T16:17:41.445Z,6.80
2023-01-15T16:20:16.395Z,6.20
2023-01-15T16:22:47.272Z,6.70
2023-01-15T16:25:25.999Z,6.80
2023-01-15T16:27:55.406Z,6.60
2023-01-15T16:30:25.462Z,6.60
2023-01-15T16:32:57.757Z,7.00
2023-01-15T16:35:27.134Z,6.70
2023-01-15T16:37:58.641Z,6.50
2023-01-15T16:40:31.636Z,6.50
2023-01-15T16:43:10.041Z,6.50
2023-01-15T16:45:58.534Z,6.60
2023-01-15T16:48:29.964Z,6.70
2023-01-15T16:53:37.924Z,6.70
2023-01-15T16:56:07.926Z,6.60
2023-01-15T16:58:39.816Z,6.60
2023-01-15T17:01:35.811Z,6.50
2023-01-15T17:04:16.187Z,6.60
2023-01-15T17:06:45.501Z,7.50
2023-01-15T17:09:16.036Z,6.60
2023-01-15T17:11:51.699Z,6.70
2023-01-15T17:14:24.181Z,6.70
2023-01-15T17:17:18.531Z,6.70
2023-01-15T17:19:49.408Z,6.70
2023-01-15T17:22:27.506Z,6.70
2023-01-15T17:24:58.937Z,6.60
2023-01-15T17:27:30.328Z,6.50
2023-01-15T17:29:59.537Z,6.40
2023-01-15T17:32:37.260Z,6.30
2023-01-15T17:35:08.902Z,6.30
2023-01-15T17:37:38.131Z,6.20
2023-01-15T17:40:07.937Z,6.20
2023-01-15T17:42:37.235Z,6.20
2023-01-15T17:45:05.989Z,6.10
2023-01-15T17:47:36.677Z,6.10
2023-01-15T17:50:08.091Z,6.00
2023-01-15T17:52:37.333Z,6.30
2023-01-15T17:55:26.907Z,6.20
2023-01-15T18:01:01.423Z,6.30
2023-01-15T18:03:49.569Z,6.20
2023-01-15T18:06:20.960Z,6.20
2023-01-15T18:08:58.092Z,6.20
2023-01-15T18:11:27.596Z,6.20
2023-01-15T18:13:57.197Z,6.20
2023-01-15T18:16:27.171Z,6.30
2023-01-15T18:18:57.972Z,6.30
2023-01-15T18:21:27.574Z,6.40
2023-01-15T18:24:00.269Z,6.30
2023-01-15T18:26:28.328Z,6.20
2023-01-15T18:28:58.783Z,6.40
2023-01-15T18:33:59.150Z,6.40
2023-01-15T18:36:27.278Z,6.30
2023-01-15T18:39:03.441Z,6.30
2023-01-15T18:44:40.856Z,6.40
2023-01-15T18:47:13.260Z,6.10
2023-01-15T18:49:45.944Z,6.20
2023-01-15T18:52:34.917Z,6.40
2023-01-15T18:57:34.835Z,6.30
2023-01-15T19:00:04.458Z,5.90
2023-01-15T19:05:02.408Z,6.20
2023-01-15T19:10:02.519Z,5.90
2023-01-15T19:12:31.791Z,6.20
2023-01-15T19:15:19.755Z,6.30
2023-01-15T19:18:05.339Z,6.30
2023-01-15T19:20:36.024Z,6.30
2023-01-15T19:23:06.794Z,6.30
2023-01-15T19:25:42.658Z,6.40
2023-01-15T19:28:16.976Z,6.30
2023-01-15T19:31:07.470Z,6.30
2023-01-15T19:33:36.286Z,6.30
2023-01-15T19:36:07.251Z,6.30
2023-01-15T19:38:39.287Z,6.30
2023-01-15T19:41:25.680Z,6.30
2023-01-15T19:44:12.867Z,6.20
2023-01-15T19:46:58.679Z,6.10
2023-01-15T19:49:45.014Z,6.10
2023-01-15T19:52:32.798Z,6.00
2023-01-15T19:55:03.409Z,6.00
2023-01-15T19:57:31.583Z,6.10
2023-01-15T20:00:00.908Z,6.20
2023-01-15T20:02:29.131Z,6.20
2023-01-15T20:04:58.651Z,6.20
2023-01-15T20:07:29.568Z,6.00
2023-01-15T20:09:58.891Z,6.20
2023-01-15T20:12:51.404Z,6.20
2023-01-15T20:15:22.166Z,6.20
2023-01-15T20:17:50.323Z,6.30
2023-01-15T20:22:49.964Z,6.10
2023-01-15T20:27:49.232Z,6.20
2023-01-15T20:30:21.521Z,6.10
2023-01-15T20:32:49.683Z,6.10
2023-01-15T20:35:20.946Z,6.20
2023-01-15T20:37:52.427Z,6.20
2023-01-15T20:40:24.914Z,6.20
2023-01-15T20:43:12.979Z,6.30
2023-01-15T20:45:42.533Z,6.00
2023-01-15T20:48:29.431Z,5.80
2023-01-15T20:53:35.782Z,5.90
2023-01-15T20:56:13.503Z,5.80
2023-01-15T20:58:44.783Z,5.70
2023-01-15T21:01:13.201Z,5.60
2023-01-15T21:03:44.132Z,5.70
2023-01-15T21:08:47.209Z,5.40
2023-01-15T21:11:17.284Z,5.40
2023-01-15T21:13:47.000Z,5.40
2023-01-15T21:16:16.498Z,5.40
2023-01-15T21:18:47.569Z,5.50
2023-01-15T21:21:20.881Z,5.50
2023-01-15T21:23:51.566Z,5.50
2023-01-15T21:26:21.027Z,5.50
2023-01-15T21:28:54.637Z,5.40
2023-01-15T21:31:24.352Z,5.40
2023-01-15T21:33:55.693Z,5.50
2023-01-15T21:36:24.795Z,5.50
2023-01-15T21:38:58.039Z,5.50
2023-01-15T21:41:42.247Z,5.50
2023-01-15T21:44:34.098Z,5.60
2023-01-15T21:47:04.349Z,5.50
2023-01-15T21:49:34.982Z,5.50
2023-01-15T21:52:08.447Z,5.50
2023-01-15T21:54:41.653Z,5.60
2023-01-15T21:57:10.183Z,5.50
2023-01-15T21:59:39.963Z,5.50
2023-01-15T22:02:15.312Z,5.50
2023-01-15T22:04:45.762Z,5.50
2023-01-15T22:07:16.730Z,5.50
2023-01-15T22:09:46.259Z,5.50
2023-01-15T22:12:15.600Z,5.50
2023-01-15T22:14:46.332Z,5.50
2023-01-15T22:17:14.412Z,5.50
2023-01-15T22:19:43.717Z,5.50
2023-01-15T22:22:13.005Z,5.40
2023-01-15T22:24:43.560Z,5.50
2023-01-15T22:29:47.446Z,5.50
2023-01-15T22:32:16.232Z,5.60
2023-01-15T22:34:45.816Z,5.50
2023-01-15T22:37:15.845Z,5.50
2023-01-15T22:42:27.259Z,6.30
2023-01-15T22:47:28.660Z,5.50
2023-01-15T22:52:27.325Z,5.60
2023-01-15T22:54:56.975Z,6.00
2023-01-15T22:57:26.690Z,5.40
2023-01-15T23:05:10.777Z,5.50
2023-01-15T23:07:41.575Z,5.50
2023-01-15T23:10:13.619Z,5.50
2023-01-15T23:12:44.361Z,5.50
2023-01-15T23:15:17.120Z,5.50
2023-01-15T23:20:17.327Z,5.60
2023-01-15T23:25:16.266Z,5.60
2023-01-15T23:27:45.649Z,5.60
2023-01-15T23:30:16.989Z,5.50
2023-01-15T23:35:14.695Z,5.60
2023-01-15T23:37:42.776Z,5.60
2023-01-15T23:40:14.860Z,5.50
2023-01-15T23:43:03.255Z,5.60
2023-01-15T23:48:21.203Z,5.60
2023-01-15T23:50:50.526Z,5.60
2023-01-15T23:55:49.425Z,5.40
2023-01-15T23:58:20.033Z,5.00
